Time;durP1;ratioP1;P1;durP2;ratioP2;P2;SDS_P1;SDS_P2;PMS_P1;PMS_P2;Temp;Humidity;BMP_temperature;BMP_pressure;BME280_temperature;BME280_humidity;BME280_pressure;Samples;Min_cycle;Max_cycle;Signal;HPM_P1;HPM_P2
2023/07/06 00:01:26;;;;;;;3.22;2.85;;;;;;;;;;5005587;28;20044;-69
2023/07/06 00:03:54;;;;;;;4.28;2.95;;;;;;;;;;5005722;28;20726;-69
2023/07/06 00:06:20;;;;;;;3.08;2.78;;;;;;;;;;5006887;28;20048;-69
2023/07/06 00:08:45;;;;;;;3.88;3.05;;;;;;;;;;5001942;28;20038;-68
2023/07/06 00:11:11;;;;;;;3.40;3.10;;;;;;;;;;5007004;28;20041;-68
2023/07/06 00:13:38;;;;;;;4.57;3.08;;;;;;;;;;5006733;28;20034;-69
2023/07/06 00:16:05;;;;;;;2.90;2.70;;;;;;;;;;5007011;28;20029;-68
2023/07/06 00:18:32;;;;;;;3.70;2.88;;;;;;;;;;5004164;28;20038;-69
2023/07/06 00:20:58;;;;;;;3.20;2.90;;;;;;;;;;5008539;28;20041;-68
2023/07/06 00:23:23;;;;;;;3.08;2.88;;;;;;;;;;5009214;28;20041;-69
2023/07/06 00:25:50;;;;;;;2.70;2.50;;;;;;;;;;5007264;28;20413;-68
2023/07/06 00:28:24;;;;;;;5.35;2.78;;;;;;;;;;5006552;28;20049;-69
2023/07/06 00:33:18;;;;;;;3.05;2.75;;;;;;;;;;5020153;28;20048;-70
2023/07/06 00:35:44;;;;;;;3.30;3.00;;;;;;;;;;5021897;28;20045;-70
2023/07/06 00:38:16;;;;;;;3.35;3.10;;;;;;;;;;5005059;28;20026;-70
2023/07/06 00:40:44;;;;;;;5.57;2.72;;;;;;;;;;5021159;28;20041;-70
2023/07/06 00:43:17;;;;;;;3.45;2.70;;;;;;;;;;5003533;28;20200;-70
2023/07/06 00:45:45;;;;;;;3.30;2.85;;;;;;;;;;5021396;28;20034;-70
2023/07/06 00:48:22;;;;;;;4.47;2.88;;;;;;;;;;5020956;28;20113;-70
2023/07/06 00:50:54;;;;;;;8.27;3.20;;;;;;;;;;5004620;28;20057;-71
2023/07/06 00:53:23;;;;;;;4.40;3.05;;;;;;;;;;5021534;28;20041;-70
2023/07/06 00:55:50;;;;;;;3.40;3.10;;;;;;;;;;5021084;28;20063;-70
2023/07/06 00:58:24;;;;;;;3.95;2.90;;;;;;;;;;5020681;28;20030;-70
2023/07/06 01:00:54;;;;;;;4.28;3.30;;;;;;;;;;5004034;28;20040;-70
2023/07/06 01:03:22;;;;;;;3.28;2.92;;;;;;;;;;5005860;28;20498;-70
2023/07/06 01:05:50;;;;;;;3.97;3.20;;;;;;;;;;5020829;28;20509;-70
2023/07/06 01:08:20;;;;;;;3.50;3.20;;;;;;;;;;5011562;28;20066;-70
2023/07/06 01:10:48;;;;;;;3.53;3.22;;;;;;;;;;5007908;28;20029;-70
2023/07/06 01:13:14;;;;;;;5.18;3.38;;;;;;;;;;5005676;28;20038;-70
2023/07/06 01:15:58;;;;;;;4.60;3.17;;;;;;;;;;5017295;28;20112;-70
2023/07/06 01:18:32;;;;;;;3.20;2.90;;;;;;;;;;5016016;28;20034;-70
2023/07/06 01:21:17;;;;;;;3.30;3.00;;;;;;;;;;5005817;28;20391;-70
2023/07/06 01:24:14;;;;;;;3.22;2.95;;;;;;;;;;5014012;28;20041;-70
2023/07/06 01:27:07;;;;;;;4.00;3.60;;;;;;;;;;5021191;28;20033;-70
2023/07/06 01:30:21;;;;;;;3.45;3.15;;;;;;;;;;5018046;28;20033;-70
2023/07/06 01:32:51;;;;;;;3.42;3.13;;;;;;;;;;5001744;28;20417;-70
2023/07/06 01:35:41;;;;;;;3.25;2.95;;;;;;;;;;5018766;28;20101;-70
2023/07/06 01:38:06;;;;;;;;;;;;;;;;;;5020679;28;20124;-70
2023/07/06 01:40:33;;;;;;;3.25;2.90;;;;;;;;;;5020111;28;19999;-70
2023/07/06 01:42:59;;;;;;;3.55;3.10;;;;;;;;;;5015155;28;20046;-70
2023/07/06 01:45:28;;;;;;;3.40;3.15;;;;;;;;;;5015691;28;20436;-70
2023/07/06 01:48:04;;;;;;;6.05;3.25;;;;;;;;;;5003605;28;20038;-70
2023/07/06 01:50:49;;;;;;;3.70;3.30;;;;;;;;;;5016792;28;20398;-70
2023/07/06 01:53:31;;;;;;;3.63;3.30;;;;;;;;;;5003386;28;20033;-70
2023/07/06 01:56:05;;;;;;;6.85;3.50;;;;;;;;;;5003633;28;20092;-70
2023/07/06 01:59:13;;;;;;;4.15;3.53;;;;;;;;;;5023421;28;20072;-70
2023/07/06 02:01:47;;;;;;;4.57;3.30;;;;;;;;;;4986247;28;20046;-70
2023/07/06 02:04:13;;;;;;;4.68;3.47;;;;;;;;;;4964392;28;20518;-70
2023/07/06 02:06:39;;;;;;;3.75;3.35;;;;;;;;;;4980010;28;20387;-70
2023/07/06 02:09:06;;;;;;;3.22;2.92;;;;;;;;;;4973608;28;20061;-71
2023/07/06 02:11:35;;;;;;;3.13;2.92;;;;;;;;;;4982036;28;20048;-70
2023/07/06 02:14:00;;;;;;;4.40;3.38;;;;;;;;;;4984500;28;20046;-70
2023/07/06 02:16:26;;;;;;;3.75;3.35;;;;;;;;;;4966144;28;20050;-70
2023/07/06 02:18:53;;;;;;;6.97;3.40;;;;;;;;;;4965258;28;20042;-70
2023/07/06 02:21:19;;;;;;;4.30;3.47;;;;;;;;;;4962379;28;20038;-70
2023/07/06 02:23:45;;;;;;;3.22;2.95;;;;;;;;;;4981176;28;20185;-70
2023/07/06 02:26:12;;;;;;;5.00;3.42;;;;;;;;;;4966462;28;20066;-70
2023/07/06 02:28:37;;;;;;;3.72;3.20;;;;;;;;;;4982774;28;20125;-70
2023/07/06 02:31:04;;;;;;;3.63;3.30;;;;;;;;;;4982182;28;20146;-70
2023/07/06 02:33:33;;;;;;;3.47;3.17;;;;;;;;;;4968623;28;20054;-70
2023/07/06 02:35:59;;;;;;;3.60;3.30;;;;;;;;;;4996786;28;20139;-70
2023/07/06 02:38:24;;;;;;;3.72;3.40;;;;;;;;;;5001388;28;20081;-70
2023/07/06 02:40:50;;;;;;;4.20;3.30;;;;;;;;;;5004791;28;20034;-70
2023/07/06 02:43:16;;;;;;;4.10;3.35;;;;;;;;;;5020232;28;20041;-70
2023/07/06 02:45:47;;;;;;;3.60;3.30;;;;;;;;;;5005111;28;20068;-70
2023/07/06 02:48:12;;;;;;;4.85;3.50;;;;;;;;;;5001781;28;20121;-70
2023/07/06 02:50:38;;;;;;;4.13;3.10;;;;;;;;;;5018053;28;20164;-70
2023/07/06 02:53:04;;;;;;;3.63;3.33;;;;;;;;;;5004619;28;20046;-70
2023/07/06 02:55:32;;;;;;;3.58;3.28;;;;;;;;;;5006312;28;20030;-70
2023/07/06 02:57:58;;;;;;;4.03;3.63;;;;;;;;;;5003063;28;20037;-70
2023/07/06 03:00:24;;;;;;;4.53;3.20;;;;;;;;;;5007041;28;20129;-70
2023/07/06 03:02:50;;;;;;;4.85;3.50;;;;;;;;;;5007378;28;20187;-70
2023/07/06 03:05:22;;;;;;;7.40;3.40;;;;;;;;;;5009695;28;20158;-70
2023/07/06 03:07:51;;;;;;;3.60;3.30;;;;;;;;;;5018964;28;20042;-70
2023/07/06 03:10:19;;;;;;;5.35;3.05;;;;;;;;;;5005886;28;20041;-70
2023/07/06 03:12:45;;;;;;;4.35;3.58;;;;;;;;;;5007975;28;20579;-70
2023/07/06 03:15:13;;;;;;;8.68;3.58;;;;;;;;;;5018788;28;20113;-70
2023/07/06 03:17:39;;;;;;;3.85;3.20;;;;;;;;;;5018977;28;20494;-70
2023/07/06 03:20:13;;;;;;;3.60;3.30;;;;;;;;;;5022490;28;20037;-70
2023/07/06 03:22:39;;;;;;;3.50;3.20;;;;;;;;;;5018247;28;20037;-71
2023/07/06 03:25:05;;;;;;;6.65;3.55;;;;;;;;;;5032297;28;20041;-70
2023/07/06 03:27:31;;;;;;;3.92;3.53;;;;;;;;;;5005518;28;20038;-70
2023/07/06 03:29:57;;;;;;;4.22;3.63;;;;;;;;;;5005723;28;20053;-70
2023/07/06 03:32:22;;;;;;;5.55;3.35;;;;;;;;;;5007892;28;20143;-70
2023/07/06 03:34:48;;;;;;;6.68;3.90;;;;;;;;;;5007655;28;20623;-70
2023/07/06 03:37:13;;;;;;;3.85;3.55;;;;;;;;;;5022834;28;20038;-70
2023/07/06 03:39:39;;;;;;;3.75;3.45;;;;;;;;;;5020333;28;20044;-70
2023/07/06 03:42:05;;;;;;;4.15;3.72;;;;;;;;;;5022922;28;20041;-70
2023/07/06 03:44:30;;;;;;;5.40;4.05;;;;;;;;;;5009137;28;20124;-70
2023/07/06 03:46:58;;;;;;;4.05;3.65;;;;;;;;;;5007991;28;20482;-70
2023/07/06 03:49:23;;;;;;;5.50;3.53;;;;;;;;;;5005519;28;20045;-70
2023/07/06 03:51:49;;;;;;;3.92;3.45;;;;;;;;;;5007950;28;20038;-70
2023/07/06 03:54:15;;;;;;;3.75;3.45;;;;;;;;;;5007335;28;20030;-70
2023/07/06 03:56:42;;;;;;;4.20;3.83;;;;;;;;;;5015362;28;20493;-70
2023/07/06 03:59:08;;;;;;;4.40;3.78;;;;;;;;;;5005588;28;20666;-70
2023/07/06 04:01:33;;;;;;;3.80;3.50;;;;;;;;;;5007215;28;20041;-70
2023/07/06 04:03:59;;;;;;;6.35;3.80;;;;;;;;;;5007492;28;20049;-70
2023/07/06 04:06:26;;;;;;;4.10;3.70;;;;;;;;;;5007720;28;20042;-70
2023/07/06 04:08:54;;;;;;;4.53;3.75;;;;;;;;;;5002785;28;20062;-70
2023/07/06 04:11:19;;;;;;;3.97;3.67;;;;;;;;;;5011491;28;20036;-70
2023/07/06 04:13:45;;;;;;;4.05;3.65;;;;;;;;;;5014710;28;20042;-70
2023/07/06 04:16:18;;;;;;;6.22;3.90;;;;;;;;;;5006097;28;20042;-70
2023/07/06 04:18:45;;;;;;;4.15;3.67;;;;;;;;;;5000163;28;20057;-70
2023/07/06 04:21:18;;;;;;;4.20;3.80;;;;;;;;;;5010807;28;20030;-70
2023/07/06 04:23:47;;;;;;;3.90;3.60;;;;;;;;;;5004552;28;20035;-70
2023/07/06 04:26:14;;;;;;;3.83;3.58;;;;;;;;;;5005626;28;20045;-70
2023/07/06 04:28:40;;;;;;;4.13;3.72;;;;;;;;;;5007127;28;20042;-70
2023/07/06 04:31:06;;;;;;;4.10;3.70;;;;;;;;;;5007044;28;20108;-71
2023/07/06 04:33:32;;;;;;;6.05;3.63;;;;;;;;;;5007255;28;20069;-70
2023/07/06 04:35:58;;;;;;;7.90;3.70;;;;;;;;;;5004849;28;20045;-71
2023/07/06 04:38:29;;;;;;;4.85;3.65;;;;;;;;;;5006612;28;20513;-71
2023/07/06 04:40:55;;;;;;;6.03;3.70;;;;;;;;;;5006452;28;20050;-70
2023/07/06 04:43:21;;;;;;;3.80;3.50;;;;;;;;;;5016399;28;20086;-70
2023/07/06 04:45:48;;;;;;;3.78;3.47;;;;;;;;;;5005271;28;20076;-70
2023/07/06 04:48:16;;;;;;;5.05;3.88;;;;;;;;;;5006049;28;20077;-70
2023/07/06 04:50:43;;;;;;;3.60;3.30;;;;;;;;;;5005173;28;20117;-70
2023/07/06 04:53:09;;;;;;;6.25;3.80;;;;;;;;;;5003909;28;20045;-70
2023/07/06 04:55:35;;;;;;;4.05;3.63;;;;;;;;;;5005292;28;20041;-70
2023/07/06 04:58:05;;;;;;;5.95;4.03;;;;;;;;;;5007726;28;20044;-71
2023/07/06 05:00:33;;;;;;;3.90;3.60;;;;;;;;;;5007374;28;20033;-71
2023/07/06 05:03:02;;;;;;;3.88;3.58;;;;;;;;;;5006006;28;20041;-70
2023/07/06 05:05:32;;;;;;;;;;;;;;;;;;5008307;28;20116;-71
2023/07/06 05:07:57;;;;;;;4.13;3.50;;;;;;;;;;5005183;28;20423;-70
2023/07/06 05:10:25;;;;;;;6.57;4.15;;;;;;;;;;5004989;28;20030;-70
2023/07/06 05:12:52;;;;;;;4.38;3.83;;;;;;;;;;5004310;28;20025;-71
2023/07/06 05:15:19;;;;;;;6.40;3.95;;;;;;;;;;5004965;28;20034;-70
2023/07/06 05:17:44;;;;;;;7.50;3.97;;;;;;;;;;5005238;28;20034;-70
2023/07/06 05:20:14;;;;;;;6.45;4.00;;;;;;;;;;5001512;28;20034;-70
2023/07/06 05:22:47;;;;;;;5.85;3.83;;;;;;;;;;5005486;28;20037;-70
2023/07/06 05:25:12;;;;;;;5.55;3.45;;;;;;;;;;5005515;28;20040;-70
2023/07/06 05:27:38;;;;;;;8.40;3.45;;;;;;;;;;5005577;28;20034;-71
2023/07/06 05:30:05;;;;;;;7.10;3.78;;;;;;;;;;5003220;28;20053;-71
2023/07/06 05:32:31;;;;;;;5.55;3.45;;;;;;;;;;5005341;28;20029;-70
2023/07/06 05:34:57;;;;;;;3.80;3.40;;;;;;;;;;5002490;28;20030;-70
2023/07/06 05:37:23;;;;;;;4.30;3.78;;;;;;;;;;5005516;28;20756;-70
2023/07/06 05:39:49;;;;;;;4.15;3.75;;;;;;;;;;5008915;28;20060;-71
2023/07/06 05:42:14;;;;;;;4.25;3.85;;;;;;;;;;5004310;28;20704;-70
2023/07/06 05:44:40;;;;;;;5.57;3.50;;;;;;;;;;5002129;28;20105;-70
2023/07/06 05:47:09;;;;;;;7.38;3.88;;;;;;;;;;5003913;28;20030;-70
2023/07/06 05:49:37;;;;;;;5.53;3.58;;;;;;;;;;5013342;28;20041;-70
2023/07/06 05:52:06;;;;;;;5.75;3.40;;;;;;;;;;5010806;28;20430;-70
2023/07/06 05:54:32;;;;;;;;;;;;;;;;;;5007118;28;20061;-70
2023/07/06 05:57:02;;;;;;;3.58;3.17;;;;;;;;;;5005342;28;19923;-71
2023/07/06 05:59:27;;;;;;;3.50;3.20;;;;;;;;;;5003266;28;20363;-70
2023/07/06 06:01:53;;;;;;;4.22;3.30;;;;;;;;;;5003723;28;20064;-70
2023/07/06 06:04:19;;;;;;;3.55;3.25;;;;;;;;;;5005505;28;20164;-70
2023/07/06 06:06:47;;;;;;;3.60;3.30;;;;;;;;;;5003005;28;20548;-70
2023/07/06 06:09:13;;;;;;;4.00;3.40;;;;;;;;;;5005005;28;20044;-70
2023/07/06 06:11:38;;;;;;;3.50;3.20;;;;;;;;;;5006338;28;20288;-70
2023/07/06 06:14:04;;;;;;;4.55;3.22;;;;;;;;;;5003832;28;20209;-70
2023/07/06 06:16:32;;;;;;;5.85;3.67;;;;;;;;;;5005101;28;20041;-70
2023/07/06 06:19:00;;;;;;;5.00;3.20;;;;;;;;;;5004625;28;20057;-71
2023/07/06 06:21:30;;;;;;;4.88;2.85;;;;;;;;;;5007583;28;20044;-70
2023/07/06 06:23:57;;;;;;;5.18;3.30;;;;;;;;;;5005588;28;20065;-70
2023/07/06 06:26:24;;;;;;;4.13;3.10;;;;;;;;;;5012439;28;20037;-72
2023/07/06 06:28:49;;;;;;;4.90;3.40;;;;;;;;;;5004466;28;20037;-70
2023/07/06 06:31:15;;;;;;;4.43;3.03;;;;;;;;;;5006232;28;20095;-70
2023/07/06 06:33:41;;;;;;;3.78;3.17;;;;;;;;;;5008551;28;20033;-70
2023/07/06 06:36:08;;;;;;;4.78;3.38;;;;;;;;;;5009326;28;20034;-70
2023/07/06 06:38:34;;;;;;;4.50;3.00;;;;;;;;;;5008469;28;20030;-70
2023/07/06 06:41:05;;;;;;;3.78;2.97;;;;;;;;;;5007944;28;20121;-70
2023/07/06 06:43:31;;;;;;;3.42;3.10;;;;;;;;;;5008809;28;20402;-70
2023/07/06 06:45:56;;;;;;;3.78;3.13;;;;;;;;;;5009621;28;20041;-70
2023/07/06 06:48:22;;;;;;;8.32;3.50;;;;;;;;;;5006972;28;20557;-70
2023/07/06 06:50:48;;;;;;;5.60;3.40;;;;;;;;;;5008811;28;20038;-70
2023/07/06 06:53:13;;;;;;;5.07;3.17;;;;;;;;;;5009184;28;20075;-70
2023/07/06 06:55:39;;;;;;;3.85;3.00;;;;;;;;;;5007721;28;20212;-70
2023/07/06 06:58:04;;;;;;;4.15;3.30;;;;;;;;;;5000225;28;20520;-70
2023/07/06 07:00:30;;;;;;;3.90;3.22;;;;;;;;;;5009119;28;20509;-70
2023/07/06 07:02:57;;;;;;;4.95;3.03;;;;;;;;;;5008949;28;20050;-70
2023/07/06 07:05:23;;;;;;;3.25;2.80;;;;;;;;;;5007023;28;20084;-70
2023/07/06 07:07:49;;;;;;;4.15;2.90;;;;;;;;;;5009183;28;20034;-70
2023/07/06 07:10:15;;;;;;;6.72;2.88;;;;;;;;;;5008083;28;20481;-70
2023/07/06 07:12:42;;;;;;;4.78;2.90;;;;;;;;;;5007558;28;20038;-70
2023/07/06 07:15:14;;;;;;;4.75;3.40;;;;;;;;;;5016407;28;20081;-70
2023/07/06 07:17:40;;;;;;;7.32;2.75;;;;;;;;;;5010110;28;20034;-70
2023/07/06 07:20:06;;;;;;;3.33;2.67;;;;;;;;;;5008449;28;20064;-70
2023/07/06 07:22:32;;;;;;;3.60;3.00;;;;;;;;;;5006641;28;20059;-70
2023/07/06 07:24:58;;;;;;;3.47;2.75;;;;;;;;;;5007050;28;20566;-70
2023/07/06 07:27:25;;;;;;;3.30;2.70;;;;;;;;;;5007542;28;20474;-70
2023/07/06 07:29:53;;;;;;;4.53;2.83;;;;;;;;;;5004930;28;20064;-70
2023/07/06 07:32:20;;;;;;;4.93;2.70;;;;;;;;;;5005572;28;20044;-70
2023/07/06 07:34:52;;;;;;;4.88;2.80;;;;;;;;;;5007713;28;20029;-70
2023/07/06 07:37:19;;;;;;;4.03;2.70;;;;;;;;;;5005975;28;20026;-69
2023/07/06 07:39:45;;;;;;;4.43;2.50;;;;;;;;;;5016967;28;20065;-70
2023/07/06 07:42:12;;;;;;;4.30;2.70;;;;;;;;;;5011299;28;20112;-70
2023/07/06 07:44:38;;;;;;;3.45;2.40;;;;;;;;;;5020124;28;20489;-70
2023/07/06 07:47:05;;;;;;;2.70;2.50;;;;;;;;;;5026624;28;20030;-70
2023/07/06 07:49:31;;;;;;;3.85;2.20;;;;;;;;;;5008040;28;20041;-70
2023/07/06 07:51:56;;;;;;;2.40;2.20;;;;;;;;;;5019047;28;20060;-70
2023/07/06 07:54:23;;;;;;;2.58;2.38;;;;;;;;;;5020892;28;20496;-70
2023/07/06 07:56:53;;;;;;;3.13;2.47;;;;;;;;;;5028307;28;20025;-70
2023/07/06 07:59:20;;;;;;;2.80;2.55;;;;;;;;;;5023600;28;20045;-70
2023/07/06 08:01:46;;;;;;;3.38;2.50;;;;;;;;;;5005835;28;20030;-70
2023/07/06 08:04:14;;;;;;;2.25;2.15;;;;;;;;;;5024807;28;20064;-70
2023/07/06 08:06:40;;;;;;;2.35;2.25;;;;;;;;;;5012122;28;20157;-70
2023/07/06 08:09:07;;;;;;;4.45;2.58;;;;;;;;;;5007796;28;20030;-70
2023/07/06 08:11:37;;;;;;;3.03;2.17;;;;;;;;;;5007366;28;20040;-70
2023/07/06 08:14:08;;;;;;;3.03;2.30;;;;;;;;;;5007900;28;20613;-70
2023/07/06 08:16:34;;;;;;;2.92;2.50;;;;;;;;;;5006696;28;20402;-70
2023/07/06 08:19:02;;;;;;;2.50;2.30;;;;;;;;;;5008828;28;20405;-70
2023/07/06 08:21:28;;;;;;;2.22;2.10;;;;;;;;;;5014131;28;20409;-70
2023/07/06 08:23:54;;;;;;;4.50;2.72;;;;;;;;;;5007664;28;20033;-70
2023/07/06 08:26:20;;;;;;;2.97;2.40;;;;;;;;;;5005689;28;20038;-70
2023/07/06 08:28:46;;;;;;;3.03;2.53;;;;;;;;;;5009782;28;20441;-70
2023/07/06 08:31:18;;;;;;;3.67;2.67;;;;;;;;;;5007422;28;20030;-70
2023/07/06 08:33:46;;;;;;;3.17;2.45;;;;;;;;;;5004875;28;20417;-71
2023/07/06 08:36:13;;;;;;;3.57;2.30;;;;;;;;;;5007916;28;20034;-70
2023/07/06 08:38:38;;;;;;;2.80;2.47;;;;;;;;;;5006884;28;20116;-70
2023/07/06 08:41:42;;;;;;;3.22;2.20;;;;;;;;;;5006425;28;20204;-70
2023/07/06 08:44:12;;;;;;;3.83;2.63;;;;;;;;;;5003951;28;20033;-70
2023/07/06 08:46:41;;;;;;;3.03;2.40;;;;;;;;;;5004041;28;20029;-71
2023/07/06 08:49:28;;;;;;;2.50;2.30;;;;;;;;;;5003553;28;20046;-70
2023/07/06 08:51:54;;;;;;;4.57;2.45;;;;;;;;;;5003125;28;20689;-70
2023/07/06 08:54:24;;;;;;;2.25;2.05;;;;;;;;;;5017558;28;20056;-69
2023/07/06 08:56:51;;;;;;;2.70;2.50;;;;;;;;;;5003116;28;20026;-70
2023/07/06 08:59:39;;;;;;;2.88;2.30;;;;;;;;;;5000589;28;20099;-70
2023/07/06 09:02:15;;;;;;;3.83;2.75;;;;;;;;;;5002660;28;20104;-70
2023/07/06 09:04:41;;;;;;;4.97;2.47;;;;;;;;;;5003784;28;20040;-70
2023/07/06 09:07:12;;;;;;;3.63;2.70;;;;;;;;;;5001205;28;20030;-70
2023/07/06 09:09:46;;;;;;;3.55;2.75;;;;;;;;;;5002548;28;20038;-70
2023/07/06 09:12:19;;;;;;;3.85;2.63;;;;;;;;;;4999907;28;20033;-70
2023/07/06 09:14:51;;;;;;;2.70;2.38;;;;;;;;;;5002897;28;20151;-70
2023/07/06 09:17:17;;;;;;;4.00;2.60;;;;;;;;;;5009267;28;20492;-70
2023/07/06 09:19:44;;;;;;;4.50;2.40;;;;;;;;;;5005755;28;20089;-70
2023/07/06 09:22:10;;;;;;;2.42;2.13;;;;;;;;;;5001346;28;20037;-71
2023/07/06 09:24:36;;;;;;;2.78;2.30;;;;;;;;;;5002540;28;20520;-71
2023/07/06 09:27:18;;;;;;;6.40;2.50;;;;;;;;;;5001370;28;20548;-70
2023/07/06 09:29:44;;;;;;;2.53;2.33;;;;;;;;;;5001233;28;20029;-70
2023/07/06 09:32:10;;;;;;;6.07;2.83;;;;;;;;;;4996565;28;20477;-70
2023/07/06 09:34:38;;;;;;;3.63;2.60;;;;;;;;;;5004892;28;20038;-69
2023/07/06 09:37:04;;;;;;;4.25;2.85;;;;;;;;;;4995544;28;20049;-70
2023/07/06 09:39:30;;;;;;;3.05;2.60;;;;;;;;;;4991505;28;20527;-70
2023/07/06 09:41:57;;;;;;;3.55;2.33;;;;;;;;;;5002943;28;20516;-70
2023/07/06 09:44:29;;;;;;;3.72;2.70;;;;;;;;;;5005908;28;20040;-70
2023/07/06 09:46:55;;;;;;;2.75;2.42;;;;;;;;;;5005428;28;20057;-70
2023/07/06 09:49:23;;;;;;;6.18;2.75;;;;;;;;;;5004013;28;20038;-69
2023/07/06 09:51:55;;;;;;;3.90;2.30;;;;;;;;;;5005460;28;20049;-70
2023/07/06 09:54:30;;;;;;;2.67;2.47;;;;;;;;;;5005708;28;20040;-69
2023/07/06 09:56:56;;;;;;;3.42;2.70;;;;;;;;;;5003953;28;20040;-69
2023/07/06 09:59:23;;;;;;;3.70;2.72;;;;;;;;;;5003525;28;20038;-69
2023/07/06 10:02:12;;;;;;;3.15;2.90;;;;;;;;;;5006972;28;20045;-70
2023/07/06 10:04:56;;;;;;;5.10;2.90;;;;;;;;;;5005675;28;20042;-69
2023/07/06 10:07:39;;;;;;;4.18;2.80;;;;;;;;;;5003343;28;20061;-69
2023/07/06 10:11:03;;;;;;;3.00;2.70;;;;;;;;;;5004833;28;20498;-69
2023/07/06 10:13:42;;;;;;;3.05;2.85;;;;;;;;;;4965220;28;20050;-70
2023/07/06 10:16:21;;;;;;;3.20;2.90;;;;;;;;;;5003659;28;20243;-69
2023/07/06 10:18:52;;;;;;;3.47;3.17;;;;;;;;;;5002496;28;20041;-70
2023/07/06 10:21:25;;;;;;;3.35;3.05;;;;;;;;;;5005165;28;20421;-71
2023/07/06 10:24:02;;;;;;;5.13;3.00;;;;;;;;;;5004828;28;20033;-70
2023/07/06 10:26:32;;;;;;;3.83;2.53;;;;;;;;;;5005104;28;20034;-70
2023/07/06 10:29:10;;;;;;;3.53;3.00;;;;;;;;;;5005330;28;20037;-70
2023/07/06 10:31:46;;;;;;;3.28;2.97;;;;;;;;;;5003552;28;20042;-70
2023/07/06 10:34:31;;;;;;;2.85;2.65;;;;;;;;;;5003601;28;20048;-70
2023/07/06 10:36:59;;;;;;;2.83;2.60;;;;;;;;;;5005286;28;20073;-70
2023/07/06 10:39:24;;;;;;;4.22;2.97;;;;;;;;;;5002945;28;20076;-70
2023/07/06 10:42:00;;;;;;;3.00;2.70;;;;;;;;;;5004630;28;20041;-70
2023/07/06 10:44:40;;;;;;;4.72;2.80;;;;;;;;;;5004966;28;20041;-70
2023/07/06 10:47:07;;;;;;;3.25;2.55;;;;;;;;;;5017156;28;20038;-70
2023/07/06 10:50:03;;;;;;;3.03;2.53;;;;;;;;;;5018973;28;20486;-71
2023/07/06 10:52:40;;;;;;;3.45;2.67;;;;;;;;;;4999477;28;20068;-70
2023/07/06 10:55:24;;;;;;;4.35;2.78;;;;;;;;;;5008544;28;20042;-70
2023/07/06 10:57:54;;;;;;;9.55;2.60;;;;;;;;;;5000175;28;20030;-70
2023/07/06 11:00:30;;;;;;;2.85;2.65;;;;;;;;;;5003395;28;20275;-70
2023/07/06 11:02:56;;;;;;;2.95;2.75;;;;;;;;;;5003431;28;20504;-71
2023/07/06 11:05:32;;;;;;;7.22;2.80;;;;;;;;;;5003184;28;20042;-70
2023/07/06 11:08:11;;;;;;;3.30;2.80;;;;;;;;;;5000985;28;20053;-70
2023/07/06 11:10:39;;;;;;;4.18;2.60;;;;;;;;;;5009835;28;20399;-70
2023/07/06 11:13:04;;;;;;;2.58;2.38;;;;;;;;;;5007313;28;20041;-70
2023/07/06 11:15:39;;;;;;;4.50;2.85;;;;;;;;;;5007731;28;20079;-70
2023/07/06 11:18:14;;;;;;;4.38;3.20;;;;;;;;;;5004324;28;20041;-70
2023/07/06 11:20:42;;;;;;;3.40;2.90;;;;;;;;;;5006714;28;20116;-70
2023/07/06 11:23:14;;;;;;;3.33;2.70;;;;;;;;;;5006470;28;20029;-70
2023/07/06 11:25:39;;;;;;;3.45;3.10;;;;;;;;;;5002614;28;20033;-70
2023/07/06 11:28:10;;;;;;;4.28;3.10;;;;;;;;;;5004375;28;20037;-70
2023/07/06 11:30:47;;;;;;;3.20;2.95;;;;;;;;;;5006397;28;20045;-70
2023/07/06 11:33:41;;;;;;;4.20;3.13;;;;;;;;;;5021919;28;20470;-70
2023/07/06 11:36:16;;;;;;;3.05;2.80;;;;;;;;;;5005150;28;20116;-70
2023/07/06 11:38:47;;;;;;;3.45;3.15;;;;;;;;;;5002280;28;20061;-70
2023/07/06 11:41:25;;;;;;;3.70;3.38;;;;;;;;;;5006074;28;20069;-70
2023/07/06 11:44:14;;;;;;;3.90;3.10;;;;;;;;;;5004912;28;20033;-70
2023/07/06 11:47:15;;;;;;;3.70;3.28;;;;;;;;;;5002143;28;20620;-70
2023/07/06 11:49:47;;;;;;;3.90;3.22;;;;;;;;;;5002132;28;20034;-70
2023/07/06 11:52:34;;;;;;;4.03;3.25;;;;;;;;;;5007563;28;20038;-70
2023/07/06 11:55:28;;;;;;;6.18;3.33;;;;;;;;;;5005161;28;20042;-70
2023/07/06 11:58:18;;;;;;;3.30;3.00;;;;;;;;;;5006514;28;20030;-70
2023/07/06 12:00:51;;;;;;;3.55;2.83;;;;;;;;;;5006042;28;20034;-71
2023/07/06 12:03:20;;;;;;;3.80;2.63;;;;;;;;;;5003619;28;20219;-70
2023/07/06 12:05:48;;;;;;;3.67;3.25;;;;;;;;;;5010661;28;20661;-71
2023/07/06 12:08:27;;;;;;;3.20;2.90;;;;;;;;;;5009321;28;20038;-70
2023/07/06 12:10:59;;;;;;;3.13;2.83;;;;;;;;;;5004872;28;20034;-71
2023/07/06 12:13:28;;;;;;;4.00;2.90;;;;;;;;;;5005946;28;20425;-71
2023/07/06 12:15:56;;;;;;;3.50;3.20;;;;;;;;;;5006174;28;20132;-71
2023/07/06 12:18:23;;;;;;;3.15;2.95;;;;;;;;;;5005704;28;20026;-70
2023/07/06 12:20:56;;;;;;;4.70;3.10;;;;;;;;;;5004184;28;20045;-71
2023/07/06 12:23:22;;;;;;;3.00;2.80;;;;;;;;;;5005135;28;20034;-71
2023/07/06 12:25:48;;;;;;;5.00;3.15;;;;;;;;;;5005953;28;20037;-71
2023/07/06 12:28:16;;;;;;;5.15;3.00;;;;;;;;;;5005504;28;20422;-71
2023/07/06 12:30:43;;;;;;;4.20;3.20;;;;;;;;;;5010349;28;20079;-71
2023/07/06 12:33:13;;;;;;;3.35;3.00;;;;;;;;;;5005609;28;20084;-71
2023/07/06 12:35:40;;;;;;;3.58;3.17;;;;;;;;;;5001502;28;20037;-71
2023/07/06 12:38:14;;;;;;;3.38;3.00;;;;;;;;;;5004150;28;20045;-71
2023/07/06 12:40:41;;;;;;;6.15;3.35;;;;;;;;;;4999381;28;20041;-71
2023/07/06 12:43:18;;;;;;;5.80;3.22;;;;;;;;;;5015303;28;20053;-71
2023/07/06 12:45:44;;;;;;;3.60;3.22;;;;;;;;;;5001571;28;20037;-71
2023/07/06 12:48:19;;;;;;;3.67;2.97;;;;;;;;;;5004837;28;20128;-71
2023/07/06 12:50:47;;;;;;;5.32;3.40;;;;;;;;;;5013792;28;20034;-71
2023/07/06 12:53:22;;;;;;;4.20;3.17;;;;;;;;;;5004902;28;20469;-71
2023/07/06 12:55:48;;;;;;;4.38;3.03;;;;;;;;;;5004050;28;20088;-71
2023/07/06 12:58:28;;;;;;;3.08;2.78;;;;;;;;;;5004226;28;20531;-71
2023/07/06 13:01:15;;;;;;;3.65;3.15;;;;;;;;;;5004645;28;20021;-71
2023/07/06 13:03:45;;;;;;;5.00;3.30;;;;;;;;;;5005051;28;20036;-70
2023/07/06 13:06:11;;;;;;;3.38;3.08;;;;;;;;;;5001909;28;20130;-70
2023/07/06 13:08:36;;;;;;;3.63;3.20;;;;;;;;;;5004479;28;20494;-70
2023/07/06 13:11:05;;;;;;;3.50;3.20;;;;;;;;;;5003921;28;20029;-70
2023/07/06 13:13:36;;;;;;;3.30;2.90;;;;;;;;;;5008390;28;20413;-70
2023/07/06 13:16:08;;;;;;;5.13;3.25;;;;;;;;;;5014303;28;20124;-70
2023/07/06 13:18:37;;;;;;;3.35;2.92;;;;;;;;;;5008115;28;20033;-70
2023/07/06 13:21:06;;;;;;;4.18;3.25;;;;;;;;;;5005662;28;20029;-70
2023/07/06 13:23:32;;;;;;;4.10;3.10;;;;;;;;;;5004727;28;20037;-71
2023/07/06 13:25:58;;;;;;;4.32;3.00;;;;;;;;;;5006801;28;20037;-70
2023/07/06 13:28:23;;;;;;;3.88;3.13;;;;;;;;;;5005406;28;20177;-72
2023/07/06 13:30:50;;;;;;;5.70;3.47;;;;;;;;;;5005279;28;20042;-70
2023/07/06 13:33:19;;;;;;;4.80;3.03;;;;;;;;;;5005385;28;20045;-71
2023/07/06 13:35:46;;;;;;;;;;;;;;;;;;5006527;28;20159;-70
2023/07/06 13:38:13;;;;;;;3.13;2.83;;;;;;;;;;5006334;28;19913;-70
2023/07/06 13:40:40;;;;;;;3.92;2.88;;;;;;;;;;5003609;28;20127;-71
2023/07/06 13:43:12;;;;;;;4.13;3.10;;;;;;;;;;5005553;28;20048;-71
2023/07/06 13:45:40;;;;;;;4.38;3.45;;;;;;;;;;5005347;28;20034;-71
2023/07/06 13:48:07;;;;;;;3.50;3.20;;;;;;;;;;5004943;28;20096;-71
2023/07/06 13:50:32;;;;;;;5.35;3.38;;;;;;;;;;5006124;28;20075;-71
2023/07/06 13:52:59;;;;;;;3.38;3.08;;;;;;;;;;5005663;28;20042;-71
2023/07/06 13:55:29;;;;;;;4.78;2.80;;;;;;;;;;5005281;28;20042;-71
2023/07/06 13:57:54;;;;;;;6.20;3.08;;;;;;;;;;5003524;28;20112;-70
2023/07/06 14:00:20;;;;;;;6.07;3.47;;;;;;;;;;5005245;28;20128;-71
2023/07/06 14:02:49;;;;;;;4.30;2.97;;;;;;;;;;5005313;28;20485;-71
2023/07/06 14:05:22;;;;;;;4.38;2.72;;;;;;;;;;5004341;28;20393;-71
2023/07/06 14:07:51;;;;;;;3.67;2.97;;;;;;;;;;5005641;28;20108;-71
2023/07/06 14:10:18;;;;;;;3.22;2.88;;;;;;;;;;5002998;28;20091;-71
2023/07/06 14:12:45;;;;;;;4.82;3.30;;;;;;;;;;5004098;28;20068;-71
2023/07/06 14:15:11;;;;;;;3.33;3.08;;;;;;;;;;5001950;28;20045;-71
2023/07/06 14:17:37;;;;;;;3.20;2.90;;;;;;;;;;5005957;28;20026;-71
2023/07/06 14:20:04;;;;;;;3.83;3.20;;;;;;;;;;5005607;28;20477;-72
2023/07/06 14:22:30;;;;;;;3.47;3.00;;;;;;;;;;5004462;28;20045;-71
2023/07/06 14:24:56;;;;;;;3.55;2.90;;;;;;;;;;5004097;28;20075;-71
2023/07/06 14:27:22;;;;;;;6.63;3.03;;;;;;;;;;5015695;28;20056;-71
2023/07/06 14:29:48;;;;;;;3.88;2.80;;;;;;;;;;5008134;28;20042;-71
2023/07/06 14:32:15;;;;;;;3.95;3.10;;;;;;;;;;5003318;28;20034;-71
2023/07/06 14:34:45;;;;;;;3.40;3.10;;;;;;;;;;5005205;28;20489;-71
2023/07/06 14:37:11;;;;;;;3.10;2.80;;;;;;;;;;5005115;28;20092;-71
2023/07/06 14:39:37;;;;;;;4.05;2.95;;;;;;;;;;5004888;28;20061;-71
2023/07/06 14:42:04;;;;;;;3.22;2.85;;;;;;;;;;5002459;28;20524;-71
2023/07/06 14:44:30;;;;;;;3.33;2.85;;;;;;;;;;5004445;28;20073;-71
2023/07/06 14:46:55;;;;;;;3.10;2.88;;;;;;;;;;5005203;28;20111;-71
2023/07/06 14:49:21;;;;;;;3.50;3.03;;;;;;;;;;5010755;28;20390;-73
2023/07/06 14:51:47;;;;;;;5.72;3.22;;;;;;;;;;5005109;28;20025;-71
2023/07/06 14:54:12;;;;;;;4.20;3.13;;;;;;;;;;5008880;28;20045;-71
2023/07/06 14:56:39;;;;;;;3.58;2.95;;;;;;;;;;5008944;28;20030;-71
2023/07/06 14:59:05;;;;;;;3.72;3.10;;;;;;;;;;5007137;28;20480;-71
2023/07/06 15:01:31;;;;;;;4.97;3.50;;;;;;;;;;5006690;28;20048;-71